sensor_id;sensor_type;location;lat;lon;timestamp;pressure;altitude;pressure_sealevel;temperature;humidity
36242;BME280;22283;42.748;12.732;2023-07-28T00:02:52;97998.13;;;19.27;56.64
36242;BME280;22283;42.748;12.732;2023-07-28T00:07:53;98016.78;;;19.12;57.52
36242;BME280;22283;42.748;12.732;2023-07-28T00:12:54;98005.03;;;19.05;57.69
36242;BME280;22283;42.748;12.732;2023-07-28T00:17:55;98010.75;;;19.02;57.94
36242;BME280;22283;42.748;12.732;2023-07-28T00:22:56;98019.09;;;19.15;58.46
36242;BME280;22283;42.748;12.732;2023-07-28T00:27:57;98013.75;;;18.99;58.93
36242;BME280;22283;42.748;12.732;2023-07-28T00:32:58;98012.22;;;18.88;59.85
36242;BME280;22283;42.748;12.732;2023-07-28T00:37:59;98010.06;;;18.76;60.73
36242;BME280;22283;42.748;12.732;2023-07-28T00:43:00;98020.78;;;18.76;61.71
36242;BME280;22283;42.748;12.732;2023-07-28T00:48:02;98010.06;;;18.84;62.69
36242;BME280;22283;42.748;12.732;2023-07-28T00:53:03;98016.09;;;18.86;63.38
36242;BME280;22283;42.748;12.732;2023-07-28T00:58:04;98010.41;;;18.89;64.24
36242;BME280;22283;42.748;12.732;2023-07-28T01:03:05;98009.91;;;18.85;64.46
36242;BME280;22283;42.748;12.732;2023-07-28T01:08:12;98004.88;;;18.99;64.09
36242;BME280;22283;42.748;12.732;2023-07-28T01:13:17;98000.53;;;18.89;66.63
36242;BME280;22283;42.748;12.732;2023-07-28T01:18:18;98002.38;;;18.97;68.48
36242;BME280;22283;42.748;12.732;2023-07-28T01:23:20;97992.16;;;19.01;68.40
36242;BME280;22283;42.748;12.732;2023-07-28T01:28:26;97994.97;;;18.99;69.63
36242;BME280;22283;42.748;12.732;2023-07-28T01:33:27;97985.78;;;18.94;71.87
36242;BME280;22283;42.748;12.732;2023-07-28T01:38:28;97989.28;;;19.02;72.16
36242;BME280;22283;42.748;12.732;2023-07-28T01:43:29;97996.16;;;19.13;72.15
36242;BME280;22283;42.748;12.732;2023-07-28T01:48:30;97984.72;;;19.27;71.50
36242;BME280;22283;42.748;12.732;2023-07-28T01:53:31;97976.16;;;19.32;70.78
36242;BME280;22283;42.748;12.732;2023-07-28T01:58:32;97982.19;;;19.34;70.74
36242;BME280;22283;42.748;12.732;2023-07-28T02:03:32;97978.53;;;19.19;71.39
36242;BME280;22283;42.748;12.732;2023-07-28T02:08:33;97972.88;;;19.05;72.29
36242;BME280;22283;42.748;12.732;2023-07-28T02:13:34;97972.53;;;19.00;72.60
36242;BME280;22283;42.748;12.732;2023-07-28T02:18:37;97974.88;;;18.87;73.11
36242;BME280;22283;42.748;12.732;2023-07-28T02:23:38;97991.81;;;18.71;73.96
36242;BME280;22283;42.748;12.732;2023-07-28T02:28:39;97992.94;;;18.68;74.59
36242;BME280;22283;42.748;12.732;2023-07-28T02:33:40;98002.66;;;18.61;75.44
36242;BME280;22283;42.748;12.732;2023-07-28T02:38:41;97992.91;;;18.52;76.39
36242;BME280;22283;42.748;12.732;2023-07-28T02:43:41;97986.75;;;18.68;76.09
36242;BME280;22283;42.748;12.732;2023-07-28T02:48:42;97985.44;;;19.05;74.43
36242;BME280;22283;42.748;12.732;2023-07-28T02:53:43;97997.28;;;19.27;72.56
36242;BME280;22283;42.748;12.732;2023-07-28T02:58:48;97975.16;;;19.33;72.67
36242;BME280;22283;42.748;12.732;2023-07-28T03:03:49;97963.09;;;19.37;72.26
36242;BME280;22283;42.748;12.732;2023-07-28T03:08:51;97973.91;;;19.52;71.50
36242;BME280;22283;42.748;12.732;2023-07-28T03:14:12;97969.44;;;19.36;73.13
36242;BME280;22283;42.748;12.732;2023-07-28T03:19:13;97957.88;;;19.35;73.84
36242;BME280;22283;42.748;12.732;2023-07-28T03:24:14;97949.78;;;19.60;72.88
36242;BME280;22283;42.748;12.732;2023-07-28T03:29:15;97960.41;;;19.37;73.85
36242;BME280;22283;42.748;12.732;2023-07-28T03:34:17;97961.16;;;18.90;76.91
36242;BME280;22283;42.748;12.732;2023-07-28T03:39:18;97973.84;;;18.47;79.49
36242;BME280;22283;42.748;12.732;2023-07-28T03:44:22;97967.09;;;18.10;81.70
36242;BME280;22283;42.748;12.732;2023-07-28T03:49:23;97983.75;;;17.88;84.34
36242;BME280;22283;42.748;12.732;2023-07-28T03:54:24;97992.00;;;17.68;85.94
36242;BME280;22283;42.748;12.732;2023-07-28T03:59:24;97987.44;;;17.61;87.79
36242;BME280;22283;42.748;12.732;2023-07-28T04:04:25;97994.97;;;17.65;89.89
36242;BME280;22283;42.748;12.732;2023-07-28T04:09:26;98002.66;;;17.60;89.95
36242;BME280;22283;42.748;12.732;2023-07-28T04:14:27;98000.53;;;17.72;89.39
36242;BME280;22283;42.748;12.732;2023-07-28T04:19:28;97987.78;;;18.00;88.62
36242;BME280;22283;42.748;12.732;2023-07-28T04:24:36;97994.97;;;18.66;85.16
36242;BME280;22283;42.748;12.732;2023-07-28T04:29:37;97977.22;;;18.98;82.03
36242;BME280;22283;42.748;12.732;2023-07-28T04:34:41;97999.78;;;20.00;76.40
36242;BME280;22283;42.748;12.732;2023-07-28T04:39:46;98003.75;;;21.50;68.60
36242;BME280;22283;42.748;12.732;2023-07-28T04:44:50;98004.91;;;22.79;62.56
36242;BME280;22283;42.748;12.732;2023-07-28T04:49:52;97999.53;;;23.85;57.52
36242;BME280;22283;42.748;12.732;2023-07-28T04:55:28;98007.19;;;24.23;55.20
36242;BME280;22283;42.748;12.732;2023-07-28T05:00:29;98006.94;;;24.66;53.95
36242;BME280;22283;42.748;12.732;2023-07-28T05:05:30;98009.28;;;25.09;52.66
36242;BME280;22283;42.748;12.732;2023-07-28T05:10:31;98010.56;;;25.13;52.25
36242;BME280;22283;42.748;12.732;2023-07-28T05:15:33;98017.22;;;25.37;51.65
36242;BME280;22283;42.748;12.732;2023-07-28T05:20:34;98016.47;;;24.48;55.76
36242;BME280;22283;42.748;12.732;2023-07-28T05:25:49;98019.53;;;25.26;52.92
36242;BME280;22283;42.748;12.732;2023-07-28T05:31:11;98029.50;;;25.52;51.56
36242;BME280;22283;42.748;12.732;2023-07-28T05:36:15;98030.72;;;25.83;49.59
36242;BME280;22283;42.748;12.732;2023-07-28T05:41:25;98029.22;;;26.59;48.40
36242;BME280;22283;42.748;12.732;2023-07-28T05:46:29;98040.78;;;26.79;48.21
36242;BME280;22283;42.748;12.732;2023-07-28T05:51:45;98049.16;;;26.26;49.26
36242;BME280;22283;42.748;12.732;2023-07-28T05:56:57;98046.31;;;26.66;48.80
36242;BME280;22283;42.748;12.732;2023-07-28T06:02:02;98046.31;;;26.66;48.90
36242;BME280;22283;42.748;12.732;2023-07-28T06:07:23;98055.03;;;26.68;49.64
36242;BME280;22283;42.748;12.732;2023-07-28T06:12:27;98054.50;;;27.48;47.81
36242;BME280;22283;42.748;12.732;2023-07-28T06:17:34;98046.19;;;27.92;48.10
36242;BME280;22283;42.748;12.732;2023-07-28T06:23:00;98049.50;;;28.50;47.43
36242;BME280;22283;42.748;12.732;2023-07-28T06:28:01;98064.06;;;28.43;46.68
36242;BME280;22283;42.748;12.732;2023-07-28T06:33:06;98050.81;;;27.92;47.31
36242;BME280;22283;42.748;12.732;2023-07-28T06:38:11;98042.72;;;28.04;47.71
36242;BME280;22283;42.748;12.732;2023-07-28T06:43:12;98034.84;;;28.32;46.89
36242;BME280;22283;42.748;12.732;2023-07-28T06:48:14;98032.88;;;28.21;46.61
36242;BME280;22283;42.748;12.732;2023-07-28T06:53:18;98054.13;;;27.69;47.20
36242;BME280;22283;42.748;12.732;2023-07-28T06:58:19;98046.75;;;27.26;48.29
36242;BME280;22283;42.748;12.732;2023-07-28T07:03:21;98061.41;;;27.75;47.71
36242;BME280;22283;42.748;12.732;2023-07-28T07:08:21;98058.88;;;27.99;47.05
36242;BME280;22283;42.748;12.732;2023-07-28T07:13:22;98053.50;;;28.10;47.29
36242;BME280;22283;42.748;12.732;2023-07-28T07:18:29;98057.31;;;28.46;45.42
36242;BME280;22283;42.748;12.732;2023-07-28T07:23:37;98057.78;;;28.43;44.08
36242;BME280;22283;42.748;12.732;2023-07-28T07:28:41;98049.13;;;28.95;43.51
36242;BME280;22283;42.748;12.732;2023-07-28T07:33:48;98069.13;;;28.70;43.13
36242;BME280;22283;42.748;12.732;2023-07-28T07:38:51;98067.44;;;28.87;42.63
36242;BME280;22283;42.748;12.732;2023-07-28T07:43:58;98064.97;;;29.28;41.97
36242;BME280;22283;42.748;12.732;2023-07-28T07:48:59;98068.00;;;29.08;41.28
36242;BME280;22283;42.748;12.732;2023-07-28T07:54:12;98076.50;;;29.00;41.43
36242;BME280;22283;42.748;12.732;2023-07-28T07:59:16;98059.53;;;29.28;40.38
36242;BME280;22283;42.748;12.732;2023-07-28T08:04:16;98072.63;;;29.73;40.34
36242;BME280;22283;42.748;12.732;2023-07-28T08:09:17;98057.44;;;30.00;38.58
36242;BME280;22283;42.748;12.732;2023-07-28T08:14:19;98080.34;;;30.34;39.99
36242;BME280;22283;42.748;12.732;2023-07-28T08:19:20;98083.97;;;30.92;38.02
36242;BME280;22283;42.748;12.732;2023-07-28T08:24:27;98081.69;;;31.01;40.91
36242;BME280;22283;42.748;12.732;2023-07-28T08:29:28;98096.75;;;29.46;42.90
36242;BME280;22283;42.748;12.732;2023-07-28T08:34:29;98110.59;;;28.72;44.31
36242;BME280;22283;42.748;12.732;2023-07-28T08:39:30;98109.34;;;27.38;47.21
36242;BME280;22283;42.748;12.732;2023-07-28T08:44:34;98079.56;;;27.81;46.83
36242;BME280;22283;42.748;12.732;2023-07-28T08:49:35;98108.09;;;27.90;46.34
36242;BME280;22283;42.748;12.732;2023-07-28T08:54:37;98138.56;;;26.66;49.32
36242;BME280;22283;42.748;12.732;2023-07-28T08:59:37;98139.97;;;25.84;51.25
36242;BME280;22283;42.748;12.732;2023-07-28T09:04:48;98134.22;;;26.52;49.81
36242;BME280;22283;42.748;12.732;2023-07-28T09:09:49;98134.25;;;26.96;47.53
36242;BME280;22283;42.748;12.732;2023-07-28T09:14:55;98153.56;;;26.68;47.53
36242;BME280;22283;42.748;12.732;2023-07-28T09:19:56;98138.81;;;27.03;47.61
36242;BME280;22283;42.748;12.732;2023-07-28T09:24:57;98135.44;;;27.45;46.86
36242;BME280;22283;42.748;12.732;2023-07-28T09:30:11;98141.13;;;27.94;46.47
36242;BME280;22283;42.748;12.732;2023-07-28T09:35:14;98135.84;;;28.42;45.52
36242;BME280;22283;42.748;12.732;2023-07-28T09:40:22;98133.75;;;28.63;44.76
36242;BME280;22283;42.748;12.732;2023-07-28T09:45:23;98123.00;;;28.50;45.09
36242;BME280;22283;42.748;12.732;2023-07-28T09:50:26;98098.28;;;28.51;43.94
36242;BME280;22283;42.748;12.732;2023-07-28T09:55:28;98090.38;;;28.80;43.19
36242;BME280;22283;42.748;12.732;2023-07-28T10:00:29;98078.91;;;29.08;43.49
36242;BME280;22283;42.748;12.732;2023-07-28T10:05:31;98068.03;;;28.89;41.34
36242;BME280;22283;42.748;12.732;2023-07-28T10:10:33;98072.72;;;29.54;41.01
36242;BME280;22283;42.748;12.732;2023-07-28T10:15:38;98062.41;;;29.56;41.00
36242;BME280;22283;42.748;12.732;2023-07-28T10:20:40;98056.75;;;29.81;41.04
36242;BME280;22283;42.748;12.732;2023-07-28T10:25:44;98031.34;;;30.28;39.40
36242;BME280;22283;42.748;12.732;2023-07-28T10:30:53;98021.97;;;30.12;38.97
36242;BME280;22283;42.748;12.732;2023-07-28T10:35:55;98051.06;;;30.58;38.52
36242;BME280;22283;42.748;12.732;2023-07-28T10:41:14;98042.66;;;30.89;37.81
36242;BME280;22283;42.748;12.732;2023-07-28T10:46:17;98040.59;;;30.67;37.89
36242;BME280;22283;42.748;12.732;2023-07-28T10:51:26;98032.63;;;30.77;38.18
36242;BME280;22283;42.748;12.732;2023-07-28T10:56:29;98022.75;;;31.05;36.58
36242;BME280;22283;42.748;12.732;2023-07-28T11:01:34;98009.41;;;31.08;36.64
36242;BME280;22283;42.748;12.732;2023-07-28T11:06:36;98006.91;;;31.07;36.66
36242;BME280;22283;42.748;12.732;2023-07-28T11:11:38;98009.09;;;31.05;36.73
36242;BME280;22283;42.748;12.732;2023-07-28T11:16:41;98001.16;;;31.20;36.92
36242;BME280;22283;42.748;12.732;2023-07-28T11:21:44;97977.31;;;30.42;36.48
36242;BME280;22283;42.748;12.732;2023-07-28T11:26:51;97979.53;;;30.04;38.02
36242;BME280;22283;42.748;12.732;2023-07-28T11:31:52;97981.22;;;29.94;37.32
36242;BME280;22283;42.748;12.732;2023-07-28T11:36:53;97981.41;;;30.04;37.40
36242;BME280;22283;42.748;12.732;2023-07-28T11:41:54;97966.00;;;30.50;37.24
36242;BME280;22283;42.748;12.732;2023-07-28T11:46:55;97967.25;;;30.59;36.57
36242;BME280;22283;42.748;12.732;2023-07-28T11:51:56;97946.88;;;30.78;35.93
36242;BME280;22283;42.748;12.732;2023-07-28T11:57:00;97944.81;;;30.85;36.50
36242;BME280;22283;42.748;12.732;2023-07-28T12:02:03;97949.81;;;30.89;37.67
36242;BME280;22283;42.748;12.732;2023-07-28T12:12:16;97956.16;;;31.11;37.08
36242;BME280;22283;42.748;12.732;2023-07-28T12:17:18;97952.94;;;31.31;36.62
36242;BME280;22283;42.748;12.732;2023-07-28T12:22:19;97934.91;;;31.30;36.27
36242;BME280;22283;42.748;12.732;2023-07-28T12:27:20;97939.94;;;31.21;37.11
36242;BME280;22283;42.748;12.732;2023-07-28T12:32:24;97942.41;;;30.44;36.66
36242;BME280;22283;42.748;12.732;2023-07-28T12:37:24;97931.13;;;30.40;37.81
36242;BME280;22283;42.748;12.732;2023-07-28T12:42:25;97946.56;;;30.63;38.71
36242;BME280;22283;42.748;12.732;2023-07-28T12:47:26;97932.84;;;30.58;38.77
36242;BME280;22283;42.748;12.732;2023-07-28T12:52:27;97937.63;;;30.51;40.21
36242;BME280;22283;42.748;12.732;2023-07-28T12:57:28;97937.31;;;30.64;39.23
36242;BME280;22283;42.748;12.732;2023-07-28T13:02:28;97943.34;;;30.95;37.97
36242;BME280;22283;42.748;12.732;2023-07-28T13:07:29;97946.63;;;30.51;39.40
36242;BME280;22283;42.748;12.732;2023-07-28T13:12:30;97953.28;;;30.72;39.24
36242;BME280;22283;42.748;12.732;2023-07-28T13:17:31;97957.22;;;30.48;39.77
36242;BME280;22283;42.748;12.732;2023-07-28T13:22:32;97972.63;;;30.25;40.39
36242;BME280;22283;42.748;12.732;2023-07-28T13:27:33;97969.50;;;30.33;40.74
36242;BME280;22283;42.748;12.732;2023-07-28T13:32:33;97976.75;;;30.28;40.63
36242;BME280;22283;42.748;12.732;2023-07-28T13:37:34;97971.66;;;30.31;39.35
36242;BME280;22283;42.748;12.732;2023-07-28T13:42:35;97977.41;;;30.18;39.41
36242;BME280;22283;42.748;12.732;2023-07-28T13:47:36;97975.63;;;30.41;39.17
36242;BME280;22283;42.748;12.732;2023-07-28T13:52:36;97976.31;;;30.07;39.18
36242;BME280;22283;42.748;12.732;2023-07-28T13:57:38;97972.03;;;30.11;38.30
36242;BME280;22283;42.748;12.732;2023-07-28T14:02:39;97967.59;;;29.94;38.37
36242;BME280;22283;42.748;12.732;2023-07-28T14:07:41;97957.44;;;30.29;37.56
36242;BME280;22283;42.748;12.732;2023-07-28T14:12:42;97950.50;;;30.38;37.72
36242;BME280;22283;42.748;12.732;2023-07-28T14:17:42;97941.84;;;30.42;37.65
36242;BME280;22283;42.748;12.732;2023-07-28T14:22:43;97940.19;;;30.29;37.32
36242;BME280;22283;42.748;12.732;2023-07-28T14:27:44;97942.41;;;30.44;38.61
36242;BME280;22283;42.748;12.732;2023-07-28T14:32:44;97937.97;;;30.71;38.54
36242;BME280;22283;42.748;12.732;2023-07-28T14:37:45;97924.97;;;30.73;38.69
36242;BME280;22283;42.748;12.732;2023-07-28T14:42:46;97918.66;;;30.90;38.09
36242;BME280;22283;42.748;12.732;2023-07-28T14:47:46;97916.03;;;30.78;37.77
36242;BME280;22283;42.748;12.732;2023-07-28T14:52:47;97905.41;;;30.98;38.54
36242;BME280;22283;42.748;12.732;2023-07-28T14:57:47;97900.28;;;31.02;38.56
36242;BME280;22283;42.748;12.732;2023-07-28T15:02:48;97895.06;;;31.00;38.21
36242;BME280;22283;42.748;12.732;2023-07-28T15:07:49;97906.72;;;30.96;38.28
36242;BME280;22283;42.748;12.732;2023-07-28T15:12:49;97903.09;;;31.07;37.38
36242;BME280;22283;42.748;12.732;2023-07-28T15:17:50;97886.88;;;30.83;38.44
36242;BME280;22283;42.748;12.732;2023-07-28T15:22:51;97901.63;;;30.82;38.61
36242;BME280;22283;42.748;12.732;2023-07-28T15:27:51;97896.69;;;30.51;38.99
36242;BME280;22283;42.748;12.732;2023-07-28T15:32:52;97890.03;;;30.75;38.46
36242;BME280;22283;42.748;12.732;2023-07-28T15:37:53;97879.69;;;30.49;39.17
36242;BME280;22283;42.748;12.732;2023-07-28T15:42:54;97879.75;;;30.66;39.24
36242;BME280;22283;42.748;12.732;2023-07-28T15:47:54;97868.81;;;30.66;39.04
36242;BME280;22283;42.748;12.732;2023-07-28T15:52:55;97869.38;;;30.68;39.10
36242;BME280;22283;42.748;12.732;2023-07-28T15:57:55;97852.91;;;30.62;39.00
36242;BME280;22283;42.748;12.732;2023-07-28T16:02:56;97845.84;;;30.78;38.38
36242;BME280;22283;42.748;12.732;2023-07-28T16:07:57;97836.56;;;30.79;38.63
36242;BME280;22283;42.748;12.732;2023-07-28T16:12:58;97835.41;;;30.75;38.87
36242;BME280;22283;42.748;12.732;2023-07-28T16:17:58;97842.16;;;30.56;38.72
36242;BME280;22283;42.748;12.732;2023-07-28T16:22:59;97845.13;;;30.37;38.74
36242;BME280;22283;42.748;12.732;2023-07-28T16:28:00;97841.81;;;30.35;38.72
36242;BME280;22283;42.748;12.732;2023-07-28T16:33:00;97833.38;;;30.37;39.02
36242;BME280;22283;42.748;12.732;2023-07-28T16:38:01;97839.97;;;30.24;38.92
36242;BME280;22283;42.748;12.732;2023-07-28T16:43:02;97835.75;;;30.05;39.26
36242;BME280;22283;42.748;12.732;2023-07-28T16:48:03;97833.38;;;29.80;39.36
36242;BME280;22283;42.748;12.732;2023-07-28T16:53:04;97846.72;;;29.64;41.09
36242;BME280;22283;42.748;12.732;2023-07-28T16:58:05;97845.06;;;29.63;41.10
36242;BME280;22283;42.748;12.732;2023-07-28T17:03:05;97839.25;;;29.60;41.59
36242;BME280;22283;42.748;12.732;2023-07-28T17:08:06;97850.03;;;29.55;41.31
36242;BME280;22283;42.748;12.732;2023-07-28T17:13:07;97850.47;;;29.11;42.34
36242;BME280;22283;42.748;12.732;2023-07-28T17:18:08;97854.72;;;29.07;43.14
36242;BME280;22283;42.748;12.732;2023-07-28T17:23:09;97847.59;;;28.83;43.41
36242;BME280;22283;42.748;12.732;2023-07-28T17:28:09;97836.91;;;28.70;43.58
36242;BME280;22283;42.748;12.732;2023-07-28T17:33:10;97848.75;;;28.52;43.62
36242;BME280;22283;42.748;12.732;2023-07-28T17:38:11;97847.72;;;28.34;43.97
36242;BME280;22283;42.748;12.732;2023-07-28T17:43:12;97851.22;;;28.11;44.37
36242;BME280;22283;42.748;12.732;2023-07-28T17:48:14;97858.78;;;27.91;44.77
36242;BME280;22283;42.748;12.732;2023-07-28T17:53:15;97865.53;;;27.88;45.27
36242;BME280;22283;42.748;12.732;2023-07-28T17:58:15;97868.09;;;27.65;45.57
36242;BME280;22283;42.748;12.732;2023-07-28T18:03:16;97869.75;;;27.48;45.91
36242;BME280;22283;42.748;12.732;2023-07-28T18:08:17;97868.78;;;27.24;46.81
36242;BME280;22283;42.748;12.732;2023-07-28T18:13:18;97871.66;;;27.04;47.24
36242;BME280;22283;42.748;12.732;2023-07-28T18:18:19;97877.06;;;26.85;47.92
36242;BME280;22283;42.748;12.732;2023-07-28T18:23:19;97884.31;;;26.66;47.99
36242;BME280;22283;42.748;12.732;2023-07-28T18:28:20;97893.25;;;26.42;48.92
36242;BME280;22283;42.748;12.732;2023-07-28T18:33:22;97887.53;;;26.18;49.16
36242;BME280;22283;42.748;12.732;2023-07-28T18:38:25;97889.53;;;25.98;49.76
36242;BME280;22283;42.748;12.732;2023-07-28T18:43:26;97907.56;;;25.79;50.50
36242;BME280;22283;42.748;12.732;2023-07-28T18:48:28;97913.84;;;25.60;51.01
36242;BME280;22283;42.748;12.732;2023-07-28T18:53:28;97926.78;;;25.44;51.71
36242;BME280;22283;42.748;12.732;2023-07-28T18:58:29;97937.03;;;25.29;51.84
36242;BME280;22283;42.748;12.732;2023-07-28T19:03:30;97945.38;;;25.21;52.29
36242;BME280;22283;42.748;12.732;2023-07-28T19:08:32;97962.47;;;25.15;52.76
36242;BME280;22283;42.748;12.732;2023-07-28T19:13:33;97960.97;;;25.06;52.90
36242;BME280;22283;42.748;12.732;2023-07-28T19:18:33;97962.00;;;24.98;53.54
36242;BME280;22283;42.748;12.732;2023-07-28T19:23:34;97952.84;;;24.86;53.57
36242;BME280;22283;42.748;12.732;2023-07-28T19:28:35;97962.84;;;24.72;54.33
36242;BME280;22283;42.748;12.732;2023-07-28T19:33:36;97976.97;;;24.61;54.71
36242;BME280;22283;42.748;12.732;2023-07-28T19:38:37;97971.53;;;24.47;55.47
36242;BME280;22283;42.748;12.732;2023-07-28T19:43:37;97971.50;;;24.41;55.90
36242;BME280;22283;42.748;12.732;2023-07-28T19:48:38;97980.66;;;24.40;56.06
36242;BME280;22283;42.748;12.732;2023-07-28T19:53:39;97977.69;;;24.35;57.02
36242;BME280;22283;42.748;12.732;2023-07-28T19:58:40;97986.81;;;24.27;57.41
36242;BME280;22283;42.748;12.732;2023-07-28T20:03:40;97984.28;;;24.12;58.25
36242;BME280;22283;42.748;12.732;2023-07-28T20:08:41;97992.31;;;23.92;59.07
36242;BME280;22283;42.748;12.732;2023-07-28T20:13:42;97993.66;;;23.75;60.05
36242;BME280;22283;42.748;12.732;2023-07-28T20:18:43;97990.47;;;23.65;61.23
36242;BME280;22283;42.748;12.732;2023-07-28T20:23:47;97982.69;;;23.48;61.87
36242;BME280;22283;42.748;12.732;2023-07-28T20:28:48;97986.38;;;23.41;62.67
36242;BME280;22283;42.748;12.732;2023-07-28T20:33:49;97994.66;;;23.39;63.96
36242;BME280;22283;42.748;12.732;2023-07-28T20:38:51;97999.59;;;23.36;64.83
36242;BME280;22283;42.748;12.732;2023-07-28T20:43:52;97989.94;;;23.20;65.44
36242;BME280;22283;42.748;12.732;2023-07-28T20:48:54;97992.59;;;23.13;66.55
36242;BME280;22283;42.748;12.732;2023-07-28T20:53:55;98002.13;;;23.09;67.92
36242;BME280;22283;42.748;12.732;2023-07-28T20:58:56;98008.09;;;23.04;68.86
36242;BME280;22283;42.748;12.732;2023-07-28T21:03:56;97996.41;;;22.97;69.98
36242;BME280;22283;42.748;12.732;2023-07-28T21:08:57;98006.38;;;22.97;70.90
36242;BME280;22283;42.748;12.732;2023-07-28T21:13:58;98005.28;;;22.91;70.72
36242;BME280;22283;42.748;12.732;2023-07-28T21:18:58;98020.34;;;22.86;71.53
36242;BME280;22283;42.748;12.732;2023-07-28T21:23:59;98021.94;;;22.80;72.17
36242;BME280;22283;42.748;12.732;2023-07-28T21:29:00;98022.72;;;22.74;73.04
36242;BME280;22283;42.748;12.732;2023-07-28T21:34:00;98018.75;;;22.70;72.80
36242;BME280;22283;42.748;12.732;2023-07-28T21:39:01;98015.75;;;22.43;73.88
36242;BME280;22283;42.748;12.732;2023-07-28T21:44:02;98032.63;;;22.16;75.47
36242;BME280;22283;42.748;12.732;2023-07-28T21:49:03;98031.31;;;21.97;76.47
36242;BME280;22283;42.748;12.732;2023-07-28T21:54:03;98031.34;;;21.82;77.66
36242;BME280;22283;42.748;12.732;2023-07-28T21:59:04;98033.00;;;21.68;78.82
36242;BME280;22283;42.748;12.732;2023-07-28T22:04:05;98040.22;;;21.53;79.19
36242;BME280;22283;42.748;12.732;2023-07-28T22:09:06;98045.88;;;21.43;80.21
36242;BME280;22283;42.748;12.732;2023-07-28T22:14:07;98042.28;;;21.28;81.29
36242;BME280;22283;42.748;12.732;2023-07-28T22:19:08;98051.81;;;21.16;81.53
36242;BME280;22283;42.748;12.732;2023-07-28T22:24:08;98058.22;;;21.15;81.87
36242;BME280;22283;42.748;12.732;2023-07-28T22:29:09;98058.69;;;20.95;82.32
36242;BME280;22283;42.748;12.732;2023-07-28T22:34:11;98053.69;;;20.92;82.60
36242;BME280;22283;42.748;12.732;2023-07-28T22:39:11;98049.84;;;20.86;83.34
36242;BME280;22283;42.748;12.732;2023-07-28T22:44:12;98035.03;;;20.91;82.20
36242;BME280;22283;42.748;12.732;2023-07-28T22:49:13;98047.47;;;20.92;82.33
36242;BME280;22283;42.748;12.732;2023-07-28T22:54:13;98044.41;;;20.95;82.57
36242;BME280;22283;42.748;12.732;2023-07-28T22:59:14;98035.75;;;20.84;82.26
36242;BME280;22283;42.748;12.732;2023-07-28T23:04:15;98056.78;;;20.81;83.80
36242;BME280;22283;42.748;12.732;2023-07-28T23:09:15;98045.06;;;20.74;84.53
36242;BME280;22283;42.748;12.732;2023-07-28T23:14:16;98042.69;;;20.79;84.62
36242;BME280;22283;42.748;12.732;2023-07-28T23:19:17;98038.97;;;20.80;85.70
36242;BME280;22283;42.748;12.732;2023-07-28T23:24:17;98055.16;;;20.72;87.11
36242;BME280;22283;42.748;12.732;2023-07-28T23:29:18;98070.63;;;20.70;89.19
36242;BME280;22283;42.748;12.732;2023-07-28T23:34:19;98048.47;;;20.68;88.62
36242;BME280;22283;42.748;12.732;2023-07-28T23:39:20;98052.53;;;20.63;87.31
36242;BME280;22283;42.748;12.732;2023-07-28T23:44:24;98046.88;;;20.50;87.52
36242;BME280;22283;42.748;12.732;2023-07-28T23:49:24;98055.50;;;20.37;88.54
36242;BME280;22283;42.748;12.732;2023-07-28T23:54:25;98057.59;;;20.27;90.87
36242;BME280;22283;42.748;12.732;2023-07-28T23:59:27;98064.47;;;20.22;92.52
